sensor_id;sensor_type;location;lat;lon;timestamp;temperature;humidity
4411;DHT22;2218;51.408;7.208;2022-09-09T00:02:18;24.00;49.40
4411;DHT22;2218;51.408;7.208;2022-09-09T00:04:54;24.00;49.40
4411;DHT22;2218;51.408;7.208;2022-09-09T00:07:37;24.00;49.40
4411;DHT22;2218;51.408;7.208;2022-09-09T00:10:19;23.90;49.40
4411;DHT22;2218;51.408;7.208;2022-09-09T00:12:59;23.90;49.30
4411;DHT22;2218;51.408;7.208;2022-09-09T00:15:35;23.90;49.30
4411;DHT22;2218;51.408;7.208;2022-09-09T00:18:16;23.90;49.30
4411;DHT22;2218;51.408;7.208;2022-09-09T00:20:55;23.90;49.40
4411;DHT22;2218;51.408;7.208;2022-09-09T00:23:32;23.90;49.40
4411;DHT22;2218;51.408;7.208;2022-09-09T00:26:08;23.90;49.40
4411;DHT22;2218;51.408;7.208;2022-09-09T00:28:45;23.90;49.40
4411;DHT22;2218;51.408;7.208;2022-09-09T00:31:22;23.90;49.40
4411;DHT22;2218;51.408;7.208;2022-09-09T00:33:53;23.90;49.40
4411;DHT22;2218;51.408;7.208;2022-09-09T00:36:23;23.90;49.40
4411;DHT22;2218;51.408;7.208;2022-09-09T00:38:57;23.90;49.40
4411;DHT22;2218;51.408;7.208;2022-09-09T00:41:35;23.90;49.40
4411;DHT22;2218;51.408;7.208;2022-09-09T00:44:25;23.90;49.40
4411;DHT22;2218;51.408;7.208;2022-09-09T00:47:09;23.90;49.40
4411;DHT22;2218;51.408;7.208;2022-09-09T00:49:56;23.90;49.40
4411;DHT22;2218;51.408;7.208;2022-09-09T00:52:35;23.90;49.40
4411;DHT22;2218;51.408;7.208;2022-09-09T00:55:11;23.90;49.50
4411;DHT22;2218;51.408;7.208;2022-09-09T00:57:48;23.90;49.50
4411;DHT22;2218;51.408;7.208;2022-09-09T01:00:22;23.90;49.40
4411;DHT22;2218;51.408;7.208;2022-09-09T01:02:59;23.90;50.00
4411;DHT22;2218;51.408;7.208;2022-09-09T01:05:44;23.90;49.50
4411;DHT22;2218;51.408;7.208;2022-09-09T01:08:31;23.90;49.50
4411;DHT22;2218;51.408;7.208;2022-09-09T01:11:14;23.90;49.50
4411;DHT22;2218;51.408;7.208;2022-09-09T01:13:53;23.90;49.50
4411;DHT22;2218;51.408;7.208;2022-09-09T01:16:30;23.90;49.50
4411;DHT22;2218;51.408;7.208;2022-09-09T01:19:00;23.90;49.50
4411;DHT22;2218;51.408;7.208;2022-09-09T01:21:39;23.90;49.50
4411;DHT22;2218;51.408;7.208;2022-09-09T01:24:25;23.90;49.50
4411;DHT22;2218;51.408;7.208;2022-09-09T01:27:15;23.80;49.50
4411;DHT22;2218;51.408;7.208;2022-09-09T01:29:45;23.80;49.50
4411;DHT22;2218;51.408;7.208;2022-09-09T01:32:41;23.80;50.00
4411;DHT22;2218;51.408;7.208;2022-09-09T01:35:29;23.80;49.50
4411;DHT22;2218;51.408;7.208;2022-09-09T01:38:07;23.80;49.50
4411;DHT22;2218;51.408;7.208;2022-09-09T01:40:34;23.80;49.50
4411;DHT22;2218;51.408;7.208;2022-09-09T01:43:04;23.80;49.50
4411;DHT22;2218;51.408;7.208;2022-09-09T01:45:32;23.80;49.50
4411;DHT22;2218;51.408;7.208;2022-09-09T01:48:00;23.80;49.50
4411;DHT22;2218;51.408;7.208;2022-09-09T01:50:41;23.80;49.50
4411;DHT22;2218;51.408;7.208;2022-09-09T01:53:08;23.80;49.50
4411;DHT22;2218;51.408;7.208;2022-09-09T01:55:39;23.80;49.50
4411;DHT22;2218;51.408;7.208;2022-09-09T01:58:28;23.80;49.50
4411;DHT22;2218;51.408;7.208;2022-09-09T02:01:06;23.80;49.60
4411;DHT22;2218;51.408;7.208;2022-09-09T02:03:46;23.80;49.60
4411;DHT22;2218;51.408;7.208;2022-09-09T02:06:26;23.80;49.60
4411;DHT22;2218;51.408;7.208;2022-09-09T02:09:06;23.80;50.10
4411;DHT22;2218;51.408;7.208;2022-09-09T02:11:40;23.80;49.60
4411;DHT22;2218;51.408;7.208;2022-09-09T02:14:23;23.80;49.60
4411;DHT22;2218;51.408;7.208;2022-09-09T02:16:56;23.80;49.60
4411;DHT22;2218;51.408;7.208;2022-09-09T02:19:44;23.80;49.60
4411;DHT22;2218;51.408;7.208;2022-09-09T02:22:24;23.80;49.60
4411;DHT22;2218;51.408;7.208;2022-09-09T02:24:57;23.80;49.60
4411;DHT22;2218;51.408;7.208;2022-09-09T02:27:29;23.80;49.60
4411;DHT22;2218;51.408;7.208;2022-09-09T02:29:59;23.80;49.60
4411;DHT22;2218;51.408;7.208;2022-09-09T02:32:38;23.80;49.60
4411;DHT22;2218;51.408;7.208;2022-09-09T02:35:13;23.80;49.70
4411;DHT22;2218;51.408;7.208;2022-09-09T02:37:45;23.80;49.70
4411;DHT22;2218;51.408;7.208;2022-09-09T02:40:13;23.80;49.70
4411;DHT22;2218;51.408;7.208;2022-09-09T02:42:47;23.80;49.70
4411;DHT22;2218;51.408;7.208;2022-09-09T02:45:20;23.80;49.70
4411;DHT22;2218;51.408;7.208;2022-09-09T02:47:55;23.80;49.70
4411;DHT22;2218;51.408;7.208;2022-09-09T02:50:32;23.80;49.70
4411;DHT22;2218;51.408;7.208;2022-09-09T02:53:07;23.80;49.70
4411;DHT22;2218;51.408;7.208;2022-09-09T02:55:46;23.80;49.70
4411;DHT22;2218;51.408;7.208;2022-09-09T02:58:17;23.80;49.70
4411;DHT22;2218;51.408;7.208;2022-09-09T03:00:56;23.80;49.70
4411;DHT22;2218;51.408;7.208;2022-09-09T03:03:26;23.80;49.70
4411;DHT22;2218;51.408;7.208;2022-09-09T03:05:54;23.80;49.70
4411;DHT22;2218;51.408;7.208;2022-09-09T03:08:22;23.80;49.80
4411;DHT22;2218;51.408;7.208;2022-09-09T03:10:49;23.80;49.70
4411;DHT22;2218;51.408;7.208;2022-09-09T03:13:19;23.80;49.70
4411;DHT22;2218;51.408;7.208;2022-09-09T03:15:47;23.80;49.70
4411;DHT22;2218;51.408;7.208;2022-09-09T03:18:19;23.70;49.60
4411;DHT22;2218;51.408;7.208;2022-09-09T03:20:49;23.70;49.70
4411;DHT22;2218;51.408;7.208;2022-09-09T03:23:18;23.80;49.80
4411;DHT22;2218;51.408;7.208;2022-09-09T03:25:47;23.70;49.60
4411;DHT22;2218;51.408;7.208;2022-09-09T03:28:16;23.70;49.60
4411;DHT22;2218;51.408;7.208;2022-09-09T03:30:43;23.70;49.70
4411;DHT22;2218;51.408;7.208;2022-09-09T03:33:10;23.80;49.80
4411;DHT22;2218;51.408;7.208;2022-09-09T03:35:45;23.70;49.70
4411;DHT22;2218;51.408;7.208;2022-09-09T03:38:15;23.70;49.70
4411;DHT22;2218;51.408;7.208;2022-09-09T03:40:49;23.70;49.70
4411;DHT22;2218;51.408;7.208;2022-09-09T03:43:17;23.70;49.70
4411;DHT22;2218;51.408;7.208;2022-09-09T03:45:45;23.70;49.70
4411;DHT22;2218;51.408;7.208;2022-09-09T03:48:14;23.70;49.70
4411;DHT22;2218;51.408;7.208;2022-09-09T03:50:45;23.70;49.70
4411;DHT22;2218;51.408;7.208;2022-09-09T03:53:14;23.70;49.70
4411;DHT22;2218;51.408;7.208;2022-09-09T03:55:44;23.70;49.70
4411;DHT22;2218;51.408;7.208;2022-09-09T03:58:12;23.70;49.70
4411;DHT22;2218;51.408;7.208;2022-09-09T04:00:40;23.70;49.70
4411;DHT22;2218;51.408;7.208;2022-09-09T04:03:11;23.70;49.70
4411;DHT22;2218;51.408;7.208;2022-09-09T04:05:40;23.70;49.70
4411;DHT22;2218;51.408;7.208;2022-09-09T04:08:09;23.70;49.80
4411;DHT22;2218;51.408;7.208;2022-09-09T04:10:37;23.70;49.70
4411;DHT22;2218;51.408;7.208;2022-09-09T04:13:04;23.70;49.80
4411;DHT22;2218;51.408;7.208;2022-09-09T04:15:32;23.70;49.70
4411;DHT22;2218;51.408;7.208;2022-09-09T04:18:01;23.70;49.70
4411;DHT22;2218;51.408;7.208;2022-09-09T04:20:28;23.70;49.70
4411;DHT22;2218;51.408;7.208;2022-09-09T04:22:56;23.70;49.70
4411;DHT22;2218;51.408;7.208;2022-09-09T04:25:24;23.70;49.70
4411;DHT22;2218;51.408;7.208;2022-09-09T04:27:53;23.70;49.70
4411;DHT22;2218;51.408;7.208;2022-09-09T04:30:21;23.70;49.80
4411;DHT22;2218;51.408;7.208;2022-09-09T04:32:48;23.70;49.70
4411;DHT22;2218;51.408;7.208;2022-09-09T04:35:15;23.70;49.70
4411;DHT22;2218;51.408;7.208;2022-09-09T04:37:44;23.70;49.80
4411;DHT22;2218;51.408;7.208;2022-09-09T04:40:12;23.70;49.80
4411;DHT22;2218;51.408;7.208;2022-09-09T04:42:40;23.70;49.80
4411;DHT22;2218;51.408;7.208;2022-09-09T04:45:11;23.70;49.80
4411;DHT22;2218;51.408;7.208;2022-09-09T04:47:40;23.70;49.80
4411;DHT22;2218;51.408;7.208;2022-09-09T04:50:08;23.70;49.80
4411;DHT22;2218;51.408;7.208;2022-09-09T04:52:35;23.70;49.80
4411;DHT22;2218;51.408;7.208;2022-09-09T04:55:03;23.70;49.80
4411;DHT22;2218;51.408;7.208;2022-09-09T04:57:31;23.70;49.80
4411;DHT22;2218;51.408;7.208;2022-09-09T04:59:59;23.70;49.80
4411;DHT22;2218;51.408;7.208;2022-09-09T05:02:33;23.70;49.80
4411;DHT22;2218;51.408;7.208;2022-09-09T05:05:04;23.70;49.80
4411;DHT22;2218;51.408;7.208;2022-09-09T05:07:32;23.70;49.80
4411;DHT22;2218;51.408;7.208;2022-09-09T05:09:59;23.70;49.80
4411;DHT22;2218;51.408;7.208;2022-09-09T05:12:26;23.70;49.80
4411;DHT22;2218;51.408;7.208;2022-09-09T05:14:54;23.60;49.70
4411;DHT22;2218;51.408;7.208;2022-09-09T05:17:23;23.70;49.80
4411;DHT22;2218;51.408;7.208;2022-09-09T05:19:50;23.70;49.80
4411;DHT22;2218;51.408;7.208;2022-09-09T05:22:18;23.60;49.80
4411;DHT22;2218;51.408;7.208;2022-09-09T05:24:47;23.60;49.70
4411;DHT22;2218;51.408;7.208;2022-09-09T05:27:16;23.70;49.80
4411;DHT22;2218;51.408;7.208;2022-09-09T05:29:46;23.60;49.80
4411;DHT22;2218;51.408;7.208;2022-09-09T05:32:14;23.60;49.80
4411;DHT22;2218;51.408;7.208;2022-09-09T05:34:46;23.60;49.80
4411;DHT22;2218;51.408;7.208;2022-09-09T05:37:14;23.60;49.80
4411;DHT22;2218;51.408;7.208;2022-09-09T05:39:42;23.60;49.80
4411;DHT22;2218;51.408;7.208;2022-09-09T05:42:09;23.60;49.80
4411;DHT22;2218;51.408;7.208;2022-09-09T05:44:37;23.60;49.80
4411;DHT22;2218;51.408;7.208;2022-09-09T05:47:04;23.60;49.80
4411;DHT22;2218;51.408;7.208;2022-09-09T05:49:31;23.60;49.80
4411;DHT22;2218;51.408;7.208;2022-09-09T05:52:00;23.60;49.80
4411;DHT22;2218;51.408;7.208;2022-09-09T05:54:29;23.60;49.90
4411;DHT22;2218;51.408;7.208;2022-09-09T05:56:56;23.60;49.80
4411;DHT22;2218;51.408;7.208;2022-09-09T05:59:23;23.60;49.80
4411;DHT22;2218;51.408;7.208;2022-09-09T06:01:53;23.60;49.90
4411;DHT22;2218;51.408;7.208;2022-09-09T06:04:25;23.70;50.10
4411;DHT22;2218;51.408;7.208;2022-09-09T06:06:52;23.70;50.10
4411;DHT22;2218;51.408;7.208;2022-09-09T06:09:22;23.70;50.20
4411;DHT22;2218;51.408;7.208;2022-09-09T06:11:49;23.70;50.30
4411;DHT22;2218;51.408;7.208;2022-09-09T06:14:16;23.70;50.30
4411;DHT22;2218;51.408;7.208;2022-09-09T06:16:46;23.70;50.30
4411;DHT22;2218;51.408;7.208;2022-09-09T06:19:17;23.70;50.20
4411;DHT22;2218;51.408;7.208;2022-09-09T06:21:46;23.70;50.20
4411;DHT22;2218;51.408;7.208;2022-09-09T06:24:15;23.70;50.20
4411;DHT22;2218;51.408;7.208;2022-09-09T06:26:46;23.80;50.30
4411;DHT22;2218;51.408;7.208;2022-09-09T06:29:18;23.80;50.30
4411;DHT22;2218;51.408;7.208;2022-09-09T06:31:45;23.80;50.40
4411;DHT22;2218;51.408;7.208;2022-09-09T06:34:15;23.80;50.20
4411;DHT22;2218;51.408;7.208;2022-09-09T06:36:46;23.80;50.50
4411;DHT22;2218;51.408;7.208;2022-09-09T06:39:13;23.80;50.40
4411;DHT22;2218;51.408;7.208;2022-09-09T06:41:41;23.80;50.40
4411;DHT22;2218;51.408;7.208;2022-09-09T06:44:23;23.80;50.50
4411;DHT22;2218;51.408;7.208;2022-09-09T06:46:52;23.80;50.40
4411;DHT22;2218;51.408;7.208;2022-09-09T06:49:20;23.80;50.30
4411;DHT22;2218;51.408;7.208;2022-09-09T06:51:47;23.80;50.40
4411;DHT22;2218;51.408;7.208;2022-09-09T06:54:15;23.90;50.50
4411;DHT22;2218;51.408;7.208;2022-09-09T06:56:44;23.90;50.60
4411;DHT22;2218;51.408;7.208;2022-09-09T06:59:18;23.90;50.70
4411;DHT22;2218;51.408;7.208;2022-09-09T07:01:48;23.90;50.70
4411;DHT22;2218;51.408;7.208;2022-09-09T07:04:17;23.80;50.60
4411;DHT22;2218;51.408;7.208;2022-09-09T07:06:45;23.80;50.70
4411;DHT22;2218;51.408;7.208;2022-09-09T07:09:20;23.80;50.70
4411;DHT22;2218;51.408;7.208;2022-09-09T07:11:51;23.80;50.80
4411;DHT22;2218;51.408;7.208;2022-09-09T07:14:21;23.70;50.70
4411;DHT22;2218;51.408;7.208;2022-09-09T07:16:54;23.70;50.70
4411;DHT22;2218;51.408;7.208;2022-09-09T07:19:21;23.70;50.70
4411;DHT22;2218;51.408;7.208;2022-09-09T07:21:51;23.70;50.70
4411;DHT22;2218;51.408;7.208;2022-09-09T07:24:21;23.70;50.70
4411;DHT22;2218;51.408;7.208;2022-09-09T07:26:48;23.70;50.60
4411;DHT22;2218;51.408;7.208;2022-09-09T07:29:16;23.70;50.70
4411;DHT22;2218;51.408;7.208;2022-09-09T07:31:43;23.60;50.60
4411;DHT22;2218;51.408;7.208;2022-09-09T07:34:14;23.60;50.60
4411;DHT22;2218;51.408;7.208;2022-09-09T07:36:41;23.60;50.40
4411;DHT22;2218;51.408;7.208;2022-09-09T07:39:12;23.70;50.10
4411;DHT22;2218;51.408;7.208;2022-09-09T07:41:46;23.70;50.20
4411;DHT22;2218;51.408;7.208;2022-09-09T07:44:21;23.70;50.30
4411;DHT22;2218;51.408;7.208;2022-09-09T07:46:54;23.70;50.30
4411;DHT22;2218;51.408;7.208;2022-09-09T07:49:28;23.70;50.30
4411;DHT22;2218;51.408;7.208;2022-09-09T07:51:55;23.70;50.20
4411;DHT22;2218;51.408;7.208;2022-09-09T07:54:23;23.70;50.20
4411;DHT22;2218;51.408;7.208;2022-09-09T07:56:51;23.70;50.30
4411;DHT22;2218;51.408;7.208;2022-09-09T07:59:21;23.70;50.40
4411;DHT22;2218;51.408;7.208;2022-09-09T08:01:52;23.60;50.30
4411;DHT22;2218;51.408;7.208;2022-09-09T08:04:24;23.60;50.30
4411;DHT22;2218;51.408;7.208;2022-09-09T08:06:56;23.60;50.40
4411;DHT22;2218;51.408;7.208;2022-09-09T08:09:27;23.60;50.40
4411;DHT22;2218;51.408;7.208;2022-09-09T08:12:01;23.60;50.50
4411;DHT22;2218;51.408;7.208;2022-09-09T08:14:29;23.60;50.40
4411;DHT22;2218;51.408;7.208;2022-09-09T08:16:56;23.60;50.20
4411;DHT22;2218;51.408;7.208;2022-09-09T08:19:26;23.60;50.20
4411;DHT22;2218;51.408;7.208;2022-09-09T08:21:56;23.60;50.20
4411;DHT22;2218;51.408;7.208;2022-09-09T08:24:23;23.60;50.00
4411;DHT22;2218;51.408;7.208;2022-09-09T08:26:51;23.70;50.00
4411;DHT22;2218;51.408;7.208;2022-09-09T08:29:22;23.70;50.50
4411;DHT22;2218;51.408;7.208;2022-09-09T08:31:52;23.60;49.80
4411;DHT22;2218;51.408;7.208;2022-09-09T08:34:21;23.70;49.70
4411;DHT22;2218;51.408;7.208;2022-09-09T08:36:50;23.70;49.60
4411;DHT22;2218;51.408;7.208;2022-09-09T08:39:23;23.70;50.10
4411;DHT22;2218;51.408;7.208;2022-09-09T08:42:10;23.60;49.40
4411;DHT22;2218;51.408;7.208;2022-09-09T08:45:02;23.60;49.40
4411;DHT22;2218;51.408;7.208;2022-09-09T08:47:50;23.70;49.30
4411;DHT22;2218;51.408;7.208;2022-09-09T08:50:33;23.70;49.30
4411;DHT22;2218;51.408;7.208;2022-09-09T08:53:27;23.70;49.10
4411;DHT22;2218;51.408;7.208;2022-09-09T08:55:59;23.70;49.10
4411;DHT22;2218;51.408;7.208;2022-09-09T08:58:45;23.70;49.00
4411;DHT22;2218;51.408;7.208;2022-09-09T09:01:30;23.70;49.00
4411;DHT22;2218;51.408;7.208;2022-09-09T09:04:20;23.70;48.80
4411;DHT22;2218;51.408;7.208;2022-09-09T09:07:05;23.70;48.80
4411;DHT22;2218;51.408;7.208;2022-09-09T09:09:46;23.70;48.80
4411;DHT22;2218;51.408;7.208;2022-09-09T09:12:29;23.70;48.60
4411;DHT22;2218;51.408;7.208;2022-09-09T09:15:02;23.70;48.60
4411;DHT22;2218;51.408;7.208;2022-09-09T09:17:42;23.70;48.60
4411;DHT22;2218;51.408;7.208;2022-09-09T09:20:13;23.70;48.50
4411;DHT22;2218;51.408;7.208;2022-09-09T09:22:48;23.70;48.50
4411;DHT22;2218;51.408;7.208;2022-09-09T09:25:20;23.70;48.40
4411;DHT22;2218;51.408;7.208;2022-09-09T09:27:56;23.70;48.40
4411;DHT22;2218;51.408;7.208;2022-09-09T09:30:31;23.70;48.40
4411;DHT22;2218;51.408;7.208;2022-09-09T09:33:15;23.70;48.30
4411;DHT22;2218;51.408;7.208;2022-09-09T09:35:48;23.70;48.30
4411;DHT22;2218;51.408;7.208;2022-09-09T09:38:18;23.70;48.20
4411;DHT22;2218;51.408;7.208;2022-09-09T09:40:50;23.70;48.30
4411;DHT22;2218;51.408;7.208;2022-09-09T09:43:24;23.70;48.20
4411;DHT22;2218;51.408;7.208;2022-09-09T09:45:53;23.70;48.20
4411;DHT22;2218;51.408;7.208;2022-09-09T09:48:20;23.70;48.20
4411;DHT22;2218;51.408;7.208;2022-09-09T09:50:50;23.70;48.20
4411;DHT22;2218;51.408;7.208;2022-09-09T09:53:22;23.70;48.20
4411;DHT22;2218;51.408;7.208;2022-09-09T09:55:55;23.70;48.00
4411;DHT22;2218;51.408;7.208;2022-09-09T09:58:27;23.70;48.00
4411;DHT22;2218;51.408;7.208;2022-09-09T10:01:00;23.70;48.00
4411;DHT22;2218;51.408;7.208;2022-09-09T10:03:30;23.70;47.80
4411;DHT22;2218;51.408;7.208;2022-09-09T10:06:03;23.60;47.50
4411;DHT22;2218;51.408;7.208;2022-09-09T10:08:34;23.60;47.60
4411;DHT22;2218;51.408;7.208;2022-09-09T10:11:30;23.60;47.80
4411;DHT22;2218;51.408;7.208;2022-09-09T10:14:18;23.70;47.90
4411;DHT22;2218;51.408;7.208;2022-09-09T10:16:58;23.70;47.90
4411;DHT22;2218;51.408;7.208;2022-09-09T10:19:37;23.70;47.60
4411;DHT22;2218;51.408;7.208;2022-09-09T10:22:25;23.70;47.70
4411;DHT22;2218;51.408;7.208;2022-09-09T10:25:14;23.70;47.30
4411;DHT22;2218;51.408;7.208;2022-09-09T10:28:15;23.60;47.00
4411;DHT22;2218;51.408;7.208;2022-09-09T10:31:04;23.60;47.30
4411;DHT22;2218;51.408;7.208;2022-09-09T10:33:49;23.70;47.10
4411;DHT22;2218;51.408;7.208;2022-09-09T10:36:21;23.80;46.90
4411;DHT22;2218;51.408;7.208;2022-09-09T10:38:57;23.80;46.80
4411;DHT22;2218;51.408;7.208;2022-09-09T10:41:44;23.90;46.60
4411;DHT22;2218;51.408;7.208;2022-09-09T10:44:33;23.90;46.60
4411;DHT22;2218;51.408;7.208;2022-09-09T10:47:50;23.90;46.70
4411;DHT22;2218;51.408;7.208;2022-09-09T10:50:48;23.90;46.90
4411;DHT22;2218;51.408;7.208;2022-09-09T10:53:28;23.90;46.90
4411;DHT22;2218;51.408;7.208;2022-09-09T10:56:06;24.00;46.90
4411;DHT22;2218;51.408;7.208;2022-09-09T10:58:39;24.00;47.00
4411;DHT22;2218;51.408;7.208;2022-09-09T11:01:16;24.00;47.00
4411;DHT22;2218;51.408;7.208;2022-09-09T11:03:53;24.00;46.90
4411;DHT22;2218;51.408;7.208;2022-09-09T11:06:29;24.00;47.00
4411;DHT22;2218;51.408;7.208;2022-09-09T11:09:02;24.10;47.00
4411;DHT22;2218;51.408;7.208;2022-09-09T11:11:35;24.00;46.90
4411;DHT22;2218;51.408;7.208;2022-09-09T11:14:10;24.10;47.00
4411;DHT22;2218;51.408;7.208;2022-09-09T11:16:47;24.10;47.10
4411;DHT22;2218;51.408;7.208;2022-09-09T11:19:24;24.10;47.10
4411;DHT22;2218;51.408;7.208;2022-09-09T11:21:55;24.10;46.60
4411;DHT22;2218;51.408;7.208;2022-09-09T11:24:28;24.10;46.20
4411;DHT22;2218;51.408;7.208;2022-09-09T11:27:02;24.10;46.50
4411;DHT22;2218;51.408;7.208;2022-09-09T11:30:18;24.10;47.10
4411;DHT22;2218;51.408;7.208;2022-09-09T11:36:22;24.10;47.30
4411;DHT22;2218;51.408;7.208;2022-09-09T11:39:17;24.10;47.60
4411;DHT22;2218;51.408;7.208;2022-09-09T11:42:06;24.10;47.70
4411;DHT22;2218;51.408;7.208;2022-09-09T11:44:34;24.10;47.80
4411;DHT22;2218;51.408;7.208;2022-09-09T11:47:02;24.10;47.90
4411;DHT22;2218;51.408;7.208;2022-09-09T11:49:39;24.10;47.90
4411;DHT22;2218;51.408;7.208;2022-09-09T11:52:13;24.10;48.00
4411;DHT22;2218;51.408;7.208;2022-09-09T11:54:51;24.10;48.00
4411;DHT22;2218;51.408;7.208;2022-09-09T11:57:25;24.10;48.10
4411;DHT22;2218;51.408;7.208;2022-09-09T11:59:57;24.10;48.10
4411;DHT22;2218;51.408;7.208;2022-09-09T12:02:27;24.10;48.20
4411;DHT22;2218;51.408;7.208;2022-09-09T12:04:59;24.10;48.30
4411;DHT22;2218;51.408;7.208;2022-09-09T12:07:35;24.10;48.30
4411;DHT22;2218;51.408;7.208;2022-09-09T12:10:20;24.10;48.40
4411;DHT22;2218;51.408;7.208;2022-09-09T12:12:51;24.10;48.40
4411;DHT22;2218;51.408;7.208;2022-09-09T12:15:29;24.10;49.00
4411;DHT22;2218;51.408;7.208;2022-09-09T12:17:57;24.10;48.50
4411;DHT22;2218;51.408;7.208;2022-09-09T12:20:31;24.10;48.50
4411;DHT22;2218;51.408;7.208;2022-09-09T12:23:15;24.10;48.60
4411;DHT22;2218;51.408;7.208;2022-09-09T12:26:21;24.10;48.60
4411;DHT22;2218;51.408;7.208;2022-09-09T12:29:02;24.10;49.10
4411;DHT22;2218;51.408;7.208;2022-09-09T12:31:41;24.10;48.70
4411;DHT22;2218;51.408;7.208;2022-09-09T12:34:16;24.10;48.70
4411;DHT22;2218;51.408;7.208;2022-09-09T12:36:52;24.00;48.60
4411;DHT22;2218;51.408;7.208;2022-09-09T12:39:30;24.10;48.80
4411;DHT22;2218;51.408;7.208;2022-09-09T12:42:02;24.00;48.70
4411;DHT22;2218;51.408;7.208;2022-09-09T12:44:29;24.00;48.70
4411;DHT22;2218;51.408;7.208;2022-09-09T12:47:00;24.10;49.30
4411;DHT22;2218;51.408;7.208;2022-09-09T12:49:31;24.10;48.90
4411;DHT22;2218;51.408;7.208;2022-09-09T12:52:03;24.10;48.90
4411;DHT22;2218;51.408;7.208;2022-09-09T12:54:36;24.10;48.90
4411;DHT22;2218;51.408;7.208;2022-09-09T12:57:04;24.10;49.00
4411;DHT22;2218;51.408;7.208;2022-09-09T12:59:39;24.00;48.90
4411;DHT22;2218;51.408;7.208;2022-09-09T13:02:18;24.00;49.00
4411;DHT22;2218;51.408;7.208;2022-09-09T13:04:46;24.00;49.00
4411;DHT22;2218;51.408;7.208;2022-09-09T13:07:16;24.00;49.00
4411;DHT22;2218;51.408;7.208;2022-09-09T13:09:46;24.00;49.00
4411;DHT22;2218;51.408;7.208;2022-09-09T13:12:17;24.00;49.10
4411;DHT22;2218;51.408;7.208;2022-09-09T13:14:48;24.10;49.10
4411;DHT22;2218;51.408;7.208;2022-09-09T13:17:22;24.10;49.10
4411;DHT22;2218;51.408;7.208;2022-09-09T13:19:51;24.10;49.10
4411;DHT22;2218;51.408;7.208;2022-09-09T13:22:24;24.00;49.10
4411;DHT22;2218;51.408;7.208;2022-09-09T13:25:06;24.00;49.10
4411;DHT22;2218;51.408;7.208;2022-09-09T13:27:54;24.00;49.10
4411;DHT22;2218;51.408;7.208;2022-09-09T13:30:25;24.00;49.20
4411;DHT22;2218;51.408;7.208;2022-09-09T13:35:50;24.00;49.20
4411;DHT22;2218;51.408;7.208;2022-09-09T13:38:21;24.00;49.20
4411;DHT22;2218;51.408;7.208;2022-09-09T13:41:00;24.00;49.80
4411;DHT22;2218;51.408;7.208;2022-09-09T13:43:31;24.00;49.30
4411;DHT22;2218;51.408;7.208;2022-09-09T13:46:04;24.00;49.30
4411;DHT22;2218;51.408;7.208;2022-09-09T13:48:54;24.00;49.30
4411;DHT22;2218;51.408;7.208;2022-09-09T13:51:31;24.00;49.30
4411;DHT22;2218;51.408;7.208;2022-09-09T13:54:03;24.00;49.30
4411;DHT22;2218;51.408;7.208;2022-09-09T13:56:33;24.00;49.40
4411;DHT22;2218;51.408;7.208;2022-09-09T13:59:01;24.00;49.40
4411;DHT22;2218;51.408;7.208;2022-09-09T14:01:28;24.00;49.40
4411;DHT22;2218;51.408;7.208;2022-09-09T14:03:56;24.00;49.40
4411;DHT22;2218;51.408;7.208;2022-09-09T14:06:24;24.00;49.50
4411;DHT22;2218;51.408;7.208;2022-09-09T14:08:52;23.90;49.40
4411;DHT22;2218;51.408;7.208;2022-09-09T14:11:20;23.90;49.40
4411;DHT22;2218;51.408;7.208;2022-09-09T14:13:49;24.00;49.50
4411;DHT22;2218;51.408;7.208;2022-09-09T14:16:16;24.00;49.50
4411;DHT22;2218;51.408;7.208;2022-09-09T14:18:44;24.00;49.50
4411;DHT22;2218;51.408;7.208;2022-09-09T14:21:11;24.00;49.50
4411;DHT22;2218;51.408;7.208;2022-09-09T14:23:41;24.00;49.50
4411;DHT22;2218;51.408;7.208;2022-09-09T14:26:08;24.00;49.50
4411;DHT22;2218;51.408;7.208;2022-09-09T14:28:36;24.00;49.50
4411;DHT22;2218;51.408;7.208;2022-09-09T14:31:04;24.00;49.50
4411;DHT22;2218;51.408;7.208;2022-09-09T14:33:31;24.00;49.60
4411;DHT22;2218;51.408;7.208;2022-09-09T14:36:00;24.00;49.60
4411;DHT22;2218;51.408;7.208;2022-09-09T14:38:29;24.00;49.60
4411;DHT22;2218;51.408;7.208;2022-09-09T14:40:57;24.00;49.60
4411;DHT22;2218;51.408;7.208;2022-09-09T14:43:25;24.00;49.60
4411;DHT22;2218;51.408;7.208;2022-09-09T14:45:52;24.00;49.70
4411;DHT22;2218;51.408;7.208;2022-09-09T14:48:20;24.00;49.60
4411;DHT22;2218;51.408;7.208;2022-09-09T14:50:47;24.00;49.70
4411;DHT22;2218;51.408;7.208;2022-09-09T14:53:16;24.00;49.80
4411;DHT22;2218;51.408;7.208;2022-09-09T14:55:43;24.00;49.80
4411;DHT22;2218;51.408;7.208;2022-09-09T14:58:12;23.90;49.70
4411;DHT22;2218;51.408;7.208;2022-09-09T15:00:39;24.00;49.90
4411;DHT22;2218;51.408;7.208;2022-09-09T15:03:06;24.00;49.90
4411;DHT22;2218;51.408;7.208;2022-09-09T15:05:36;23.90;49.80
4411;DHT22;2218;51.408;7.208;2022-09-09T15:08:03;24.00;49.90
4411;DHT22;2218;51.408;7.208;2022-09-09T15:10:29;24.00;49.90
4411;DHT22;2218;51.408;7.208;2022-09-09T15:12:57;24.00;49.90
4411;DHT22;2218;51.408;7.208;2022-09-09T15:15:24;24.00;49.90
4411;DHT22;2218;51.408;7.208;2022-09-09T15:17:52;24.00;49.90
4411;DHT22;2218;51.408;7.208;2022-09-09T15:20:19;24.00;50.00
4411;DHT22;2218;51.408;7.208;2022-09-09T15:22:47;24.00;50.00
4411;DHT22;2218;51.408;7.208;2022-09-09T15:25:14;24.00;50.10
4411;DHT22;2218;51.408;7.208;2022-09-09T15:27:43;23.90;50.00
4411;DHT22;2218;51.408;7.208;2022-09-09T15:30:11;23.90;50.10
4411;DHT22;2218;51.408;7.208;2022-09-09T15:32:38;23.90;50.10
4411;DHT22;2218;51.408;7.208;2022-09-09T15:35:06;23.90;50.10
4411;DHT22;2218;51.408;7.208;2022-09-09T15:37:33;23.90;50.20
4411;DHT22;2218;51.408;7.208;2022-09-09T15:40:02;23.90;50.20
4411;DHT22;2218;51.408;7.208;2022-09-09T15:42:29;23.90;50.20
4411;DHT22;2218;51.408;7.208;2022-09-09T15:44:56;23.90;50.30
4411;DHT22;2218;51.408;7.208;2022-09-09T15:47:24;23.90;50.30
4411;DHT22;2218;51.408;7.208;2022-09-09T15:49:51;23.90;50.30
4411;DHT22;2218;51.408;7.208;2022-09-09T15:52:17;23.90;50.30
4411;DHT22;2218;51.408;7.208;2022-09-09T15:54:44;23.90;50.20
4411;DHT22;2218;51.408;7.208;2022-09-09T15:57:13;23.90;50.30
4411;DHT22;2218;51.408;7.208;2022-09-09T15:59:40;23.90;50.30
4411;DHT22;2218;51.408;7.208;2022-09-09T16:02:08;23.90;50.30
4411;DHT22;2218;51.408;7.208;2022-09-09T16:04:35;23.90;50.80
4411;DHT22;2218;51.408;7.208;2022-09-09T16:07:04;23.90;50.80
4411;DHT22;2218;51.408;7.208;2022-09-09T16:09:33;23.90;50.30
4411;DHT22;2218;51.408;7.208;2022-09-09T16:12:02;23.80;50.20
4411;DHT22;2218;51.408;7.208;2022-09-09T16:14:34;23.90;50.30
4411;DHT22;2218;51.408;7.208;2022-09-09T16:17:02;23.90;50.40
4411;DHT22;2218;51.408;7.208;2022-09-09T16:19:29;23.80;50.20
4411;DHT22;2218;51.408;7.208;2022-09-09T16:21:56;23.80;50.30
4411;DHT22;2218;51.408;7.208;2022-09-09T16:24:24;23.80;50.30
4411;DHT22;2218;51.408;7.208;2022-09-09T16:26:52;23.80;50.30
4411;DHT22;2218;51.408;7.208;2022-09-09T16:29:21;23.80;50.30
4411;DHT22;2218;51.408;7.208;2022-09-09T16:31:50;23.80;50.30
4411;DHT22;2218;51.408;7.208;2022-09-09T16:34:18;23.80;50.30
4411;DHT22;2218;51.408;7.208;2022-09-09T16:36:46;23.80;50.30
4411;DHT22;2218;51.408;7.208;2022-09-09T16:39:16;23.80;50.90
4411;DHT22;2218;51.408;7.208;2022-09-09T16:41:45;23.80;50.40
4411;DHT22;2218;51.408;7.208;2022-09-09T16:44:15;23.80;50.40
4411;DHT22;2218;51.408;7.208;2022-09-09T16:46:46;23.80;50.40